Time;durP1;ratioP1;P1;durP2;ratioP2;P2;SDS_P1;SDS_P2;PMS_P1;PMS_P2;Temp;Humidity;BMP_temperature;BMP_pressure;BME280_temperature;BME280_humidity;BME280_pressure;Samples;Min_cycle;Max_cycle;Signal;HPM_P1;HPM_P2
2022/10/25 00:00:04;;;;;;;21.13;8.48;;;;;;;;;;6098901;23;20014;-81
2022/10/25 00:02:33;;;;;;;12.98;7.47;;;;;;;;;;6122563;23;20017;-81
2022/10/25 00:04:59;;;;;;;14.52;7.65;;;;;;;;;;6121745;23;20025;-81
2022/10/25 00:07:25;;;;;;;17.05;7.80;;;;;;;;;;6122125;23;20052;-81
2022/10/25 00:09:51;;;;;;;16.88;7.80;;;;;;;;;;6120268;23;20104;-81
2022/10/25 00:12:17;;;;;;;16.73;8.70;;;;;;;;;;6071288;23;20771;-81
2022/10/25 00:14:43;;;;;;;13.13;8.20;;;;;;;;;;6120075;23;20020;-81
2022/10/25 00:17:09;;;;;;;19.95;7.88;;;;;;;;;;6122333;23;20456;-81
2022/10/25 00:19:36;;;;;;;19.55;8.20;;;;;;;;;;6122394;23;20467;-81
2022/10/25 00:22:02;;;;;;;20.80;8.88;;;;;;;;;;6074133;23;20022;-81
2022/10/25 00:24:28;;;;;;;17.70;9.80;;;;;;;;;;6050721;23;20345;-81
2022/10/25 00:26:55;;;;;;;18.02;8.60;;;;;;;;;;6122702;23;20052;-81
2022/10/25 00:29:21;;;;;;;20.45;10.40;;;;;;;;;;6122366;23;20017;-81
2022/10/25 00:31:47;;;;;;;19.63;9.18;;;;;;;;;;6097239;23;20110;-81
2022/10/25 00:34:13;;;;;;;20.95;9.57;;;;;;;;;;6096361;23;20439;-81
2022/10/25 00:36:39;;;;;;;24.20;8.80;;;;;;;;;;6121846;23;20376;-82
2022/10/25 00:39:05;;;;;;;21.42;9.98;;;;;;;;;;6121510;23;20022;-81
2022/10/25 00:41:32;;;;;;;21.33;10.18;;;;;;;;;;6121719;23;20105;-81
2022/10/25 00:44:17;;;;;;;18.95;10.27;;;;;;;;;;6120875;23;20064;-81
2022/10/25 00:46:44;;;;;;;20.63;9.93;;;;;;;;;;6097680;23;20014;-81
2022/10/25 00:49:14;;;;;;;19.13;10.52;;;;;;;;;;6121979;23;20022;-81
2022/10/25 00:51:40;;;;;;;18.70;9.93;;;;;;;;;;6122728;23;20017;-81
2022/10/25 00:54:07;;;;;;;19.10;8.95;;;;;;;;;;6073915;23;20046;-81
2022/10/25 00:56:36;;;;;;;20.33;10.63;;;;;;;;;;6122026;23;20010;-81
2022/10/25 00:59:03;;;;;;;21.95;10.73;;;;;;;;;;6097565;23;20014;-81
2022/10/25 01:01:30;;;;;;;20.75;9.90;;;;;;;;;;6098184;23;20049;-81
2022/10/25 01:03:57;;;;;;;19.15;10.25;;;;;;;;;;6121982;23;20083;-81
2022/10/25 01:06:28;;;;;;;26.85;10.65;;;;;;;;;;6122168;23;20014;-81
2022/10/25 01:08:54;;;;;;;15.40;8.63;;;;;;;;;;6097894;23;20673;-81
2022/10/25 01:11:21;;;;;;;19.80;9.23;;;;;;;;;;6121877;23;20042;-81
2022/10/25 01:13:48;;;;;;;19.15;9.20;;;;;;;;;;6121942;23;20014;-81
2022/10/25 01:16:18;;;;;;;19.27;9.38;;;;;;;;;;6121772;23;20010;-81
2022/10/25 01:18:47;;;;;;;18.08;9.90;;;;;;;;;;6122171;23;20021;-81
2022/10/25 01:21:13;;;;;;;14.95;7.82;;;;;;;;;;6121853;23;20066;-81
2022/10/25 01:23:48;;;;;;;17.58;8.05;;;;;;;;;;6097405;23;20461;-80
2022/10/25 01:26:33;;;;;;;18.08;7.90;;;;;;;;;;6097805;23;20080;-81
2022/10/25 01:29:05;;;;;;;20.42;9.25;;;;;;;;;;6122186;23;20080;-81
2022/10/25 01:31:46;;;;;;;15.68;8.73;;;;;;;;;;6119870;23;20017;-81
2022/10/25 01:34:32;;;;;;;13.45;8.35;;;;;;;;;;6119541;23;20125;-82
2022/10/25 01:37:03;;;;;;;14.77;9.15;;;;;;;;;;6070509;23;20021;-81
2022/10/25 01:39:32;;;;;;;20.77;9.70;;;;;;;;;;6118804;23;20040;-82
2022/10/25 01:42:12;;;;;;;14.98;7.72;;;;;;;;;;6120567;23;20340;-81
2022/10/25 01:44:58;;;;;;;17.60;8.90;;;;;;;;;;6120648;23;20018;-81
2022/10/25 01:47:26;;;;;;;13.63;7.80;;;;;;;;;;6121124;23;20025;-81
2022/10/25 01:50:07;;;;;;;18.52;8.43;;;;;;;;;;6121406;23;20050;-81
2022/10/25 01:52:33;;;;;;;16.67;7.38;;;;;;;;;;6073311;23;20020;-81
2022/10/25 01:54:59;;;;;;;15.52;7.50;;;;;;;;;;6122038;23;20014;-81
2022/10/25 01:57:28;;;;;;;11.18;7.00;;;;;;;;;;6121703;23;20762;-81
2022/10/25 01:59:57;;;;;;;14.60;7.03;;;;;;;;;;6097213;23;20018;-80
2022/10/25 02:02:32;;;;;;;13.02;7.40;;;;;;;;;;6120939;23;20014;-81
2022/10/25 02:05:03;;;;;;;14.68;7.70;;;;;;;;;;6073221;23;20029;-81
2022/10/25 02:07:29;;;;;;;16.67;7.35;;;;;;;;;;6120934;23;20100;-81
2022/10/25 02:10:28;;;;;;;22.60;7.55;;;;;;;;;;6119761;23;20021;-82
2022/10/25 02:13:03;;;;;;;19.25;8.77;;;;;;;;;;6055629;23;20021;-80
2022/10/25 02:15:47;;;;;;;12.55;7.20;;;;;;;;;;6095398;23;20037;-81
2022/10/25 02:18:15;;;;;;;16.02;8.05;;;;;;;;;;6070841;23;20021;-81
2022/10/25 02:20:43;;;;;;;17.00;8.05;;;;;;;;;;6121434;23;20322;-81
2022/10/25 02:23:09;;;;;;;17.33;6.72;;;;;;;;;;6074818;23;20161;-81
2022/10/25 02:25:36;;;;;;;12.85;6.70;;;;;;;;;;6122409;23;20010;-81
2022/10/25 02:28:05;;;;;;;15.23;7.32;;;;;;;;;;6123297;23;20021;-81
2022/10/25 02:30:33;;;;;;;15.18;7.25;;;;;;;;;;6074575;23;20049;-81
2022/10/25 02:32:59;;;;;;;13.50;7.80;;;;;;;;;;6123837;23;20017;-81
2022/10/25 02:35:25;;;;;;;20.35;8.40;;;;;;;;;;6123435;23;20013;-81
2022/10/25 02:37:51;;;;;;;18.13;7.72;;;;;;;;;;6075035;23;20010;-81
2022/10/25 02:40:17;;;;;;;20.67;9.63;;;;;;;;;;6122985;23;20593;-81
2022/10/25 02:42:43;;;;;;;19.73;9.90;;;;;;;;;;6121855;23;20022;-81
2022/10/25 02:45:09;;;;;;;18.75;9.52;;;;;;;;;;6073577;23;20096;-81
2022/10/25 02:47:36;;;;;;;15.02;8.82;;;;;;;;;;6096920;23;20018;-81
2022/10/25 02:50:02;;;;;;;15.90;8.48;;;;;;;;;;6122390;23;20022;-81
2022/10/25 02:52:28;;;;;;;21.80;8.50;;;;;;;;;;6122544;23;20522;-81
2022/10/25 02:54:54;;;;;;;15.57;8.27;;;;;;;;;;6122297;23;20010;-81
2022/10/25 02:57:20;;;;;;;17.33;7.88;;;;;;;;;;6123626;23;20010;-81
2022/10/25 02:59:46;;;;;;;19.08;6.93;;;;;;;;;;6098543;23;20013;-81
2022/10/25 03:02:13;;;;;;;18.15;7.93;;;;;;;;;;6122998;23;20519;-81
2022/10/25 03:04:39;;;;;;;13.82;8.00;;;;;;;;;;6123317;23;20018;-81
2022/10/25 03:07:05;;;;;;;13.30;7.03;;;;;;;;;;6123440;23;20014;-81
2022/10/25 03:09:31;;;;;;;14.75;7.15;;;;;;;;;;6122751;23;20014;-81
2022/10/25 03:11:57;;;;;;;14.82;7.65;;;;;;;;;;6122950;23;20014;-81
2022/10/25 03:14:24;;;;;;;10.95;6.85;;;;;;;;;;6122893;23;20090;-81
2022/10/25 03:16:50;;;;;;;11.48;7.13;;;;;;;;;;6122522;23;20010;-81
2022/10/25 03:19:16;;;;;;;17.13;7.07;;;;;;;;;;6123089;23;20014;-81
2022/10/25 03:21:42;;;;;;;21.30;8.43;;;;;;;;;;6098457;23;20022;-81
2022/10/25 03:24:08;;;;;;;14.63;6.75;;;;;;;;;;6122595;23;20022;-81
2022/10/25 03:26:34;;;;;;;14.60;7.32;;;;;;;;;;6098115;23;20025;-81
2022/10/25 03:29:00;;;;;;;13.90;6.88;;;;;;;;;;6123409;23;20025;-81
2022/10/25 03:31:27;;;;;;;18.73;7.55;;;;;;;;;;6098288;23;20013;-81
2022/10/25 03:33:53;;;;;;;16.33;7.00;;;;;;;;;;6122134;23;20014;-81
2022/10/25 03:36:19;;;;;;;14.15;6.70;;;;;;;;;;6122957;23;20022;-81
2022/10/25 03:38:45;;;;;;;12.35;6.45;;;;;;;;;;6122382;23;20380;-81
2022/10/25 03:41:11;;;;;;;15.43;6.25;;;;;;;;;;6073708;23;20016;-81
2022/10/25 03:43:37;;;;;;;15.25;7.95;;;;;;;;;;6122518;23;20510;-81
2022/10/25 03:46:03;;;;;;;14.63;7.80;;;;;;;;;;6123055;23;20021;-81
2022/10/25 03:48:29;;;;;;;15.07;6.43;;;;;;;;;;6122426;23;20755;-81
2022/10/25 03:50:55;;;;;;;17.58;5.90;;;;;;;;;;6098508;23;20017;-81
2022/10/25 03:53:21;;;;;;;13.40;6.40;;;;;;;;;;6098648;23;20134;-81
2022/10/25 03:55:48;;;;;;;12.77;6.93;;;;;;;;;;6122358;23;20621;-81
2022/10/25 03:58:15;;;;;;;20.73;6.18;;;;;;;;;;6122151;23;20309;-81
2022/10/25 04:00:41;;;;;;;11.73;5.82;;;;;;;;;;6121029;23;20010;-81
2022/10/25 04:03:07;;;;;;;17.83;5.68;;;;;;;;;;6074182;23;20061;-80
2022/10/25 04:05:33;;;;;;;14.80;5.65;;;;;;;;;;6122637;23;20093;-81
2022/10/25 04:07:59;;;;;;;15.55;5.80;;;;;;;;;;6097985;23;20092;-81
2022/10/25 04:10:25;;;;;;;14.60;5.45;;;;;;;;;;6097790;23;20014;-81
2022/10/25 04:12:51;;;;;;;10.48;5.45;;;;;;;;;;6098315;23;20013;-81
2022/10/25 04:15:18;;;;;;;14.30;5.45;;;;;;;;;;6122161;23;20014;-81
2022/10/25 04:17:44;;;;;;;19.30;5.70;;;;;;;;;;6122249;23;20033;-81
2022/10/25 04:20:10;;;;;;;18.85;6.20;;;;;;;;;;6122593;23;20044;-81
2022/10/25 04:22:36;;;;;;;16.33;5.25;;;;;;;;;;6097539;23;20018;-81
2022/10/25 04:25:02;;;;;;;11.77;4.57;;;;;;;;;;6122370;23;20101;-81
2022/10/25 04:27:28;;;;;;;13.85;5.03;;;;;;;;;;6074491;23;20092;-81
2022/10/25 04:29:54;;;;;;;19.48;6.40;;;;;;;;;;6121023;23;20010;-81
2022/10/25 04:32:20;;;;;;;12.90;4.88;;;;;;;;;;6118894;23;20037;-81
2022/10/25 04:34:46;;;;;;;14.60;5.25;;;;;;;;;;6119206;23;20039;-80
2022/10/25 04:37:12;;;;;;;11.95;4.95;;;;;;;;;;6072023;23;20017;-81
2022/10/25 04:39:38;;;;;;;15.98;5.65;;;;;;;;;;6120331;23;20014;-81
2022/10/25 04:42:05;;;;;;;10.93;4.40;;;;;;;;;;6096320;23;20018;-81
2022/10/25 04:44:31;;;;;;;17.52;5.38;;;;;;;;;;6121855;23;20069;-81
2022/10/25 04:46:57;;;;;;;18.65;5.38;;;;;;;;;;6050540;23;20202;-81
2022/10/25 04:49:23;;;;;;;11.02;4.45;;;;;;;;;;6120901;23;20050;-81
2022/10/25 04:51:49;;;;;;;14.02;4.63;;;;;;;;;;6120715;23;20531;-81
2022/10/25 04:54:15;;;;;;;10.27;4.05;;;;;;;;;;6120231;23;20014;-82
2022/10/25 04:56:41;;;;;;;19.40;4.57;;;;;;;;;;6119066;23;20444;-81
2022/10/25 04:59:08;;;;;;;18.45;5.78;;;;;;;;;;6119975;23;20017;-82
2022/10/25 05:01:34;;;;;;;13.95;4.47;;;;;;;;;;6096576;23;20020;-81
2022/10/25 05:04:00;;;;;;;19.85;5.00;;;;;;;;;;6120515;23;20028;-81
2022/10/25 05:06:27;;;;;;;15.00;5.00;;;;;;;;;;6119952;23;20085;-81
2022/10/25 05:08:53;;;;;;;15.40;4.43;;;;;;;;;;6118774;23;20018;-81
2022/10/25 05:11:20;;;;;;;11.15;4.88;;;;;;;;;;6118676;23;20017;-81
2022/10/25 05:13:46;;;;;;;12.60;4.60;;;;;;;;;;6094545;23;20014;-80
2022/10/25 05:16:16;;;;;;;14.23;5.43;;;;;;;;;;6119797;23;20010;-81
2022/10/25 05:18:46;;;;;;;25.45;5.90;;;;;;;;;;6120678;23;20014;-81
2022/10/25 05:21:12;;;;;;;8.65;4.20;;;;;;;;;;6120885;23;20037;-81
2022/10/25 05:23:38;;;;;;;12.55;4.93;;;;;;;;;;6097380;23;20329;-81
2022/10/25 05:26:06;;;;;;;22.10;6.05;;;;;;;;;;6120984;23;20088;-81
2022/10/25 05:28:32;;;;;;;12.75;4.93;;;;;;;;;;6093785;23;20020;-77
2022/10/25 05:31:02;;;;;;;16.83;4.60;;;;;;;;;;6118593;23;20014;-78
2022/10/25 05:33:28;;;;;;;16.13;5.28;;;;;;;;;;6094401;23;20081;-77
2022/10/25 05:35:54;;;;;;;16.10;5.25;;;;;;;;;;6118471;23;20018;-77
2022/10/25 05:38:20;;;;;;;11.50;4.80;;;;;;;;;;6118709;23;20014;-77
2022/10/25 05:40:53;;;;;;;12.93;4.85;;;;;;;;;;6119267;23;20318;-78
2022/10/25 05:43:19;;;;;;;13.80;5.22;;;;;;;;;;6115789;23;20381;-77
2022/10/25 05:45:45;;;;;;;11.23;5.10;;;;;;;;;;6068578;23;20345;-76
2022/10/25 05:48:11;;;;;;;9.52;5.28;;;;;;;;;;6119398;23;20084;-75
2022/10/25 05:50:37;;;;;;;12.60;4.53;;;;;;;;;;6118912;23;20321;-76
2022/10/25 05:53:03;;;;;;;25.15;6.15;;;;;;;;;;6118776;23;20109;-75
2022/10/25 05:55:29;;;;;;;18.33;5.60;;;;;;;;;;6118866;23;20025;-76
2022/10/25 05:57:56;;;;;;;13.98;5.63;;;;;;;;;;6121135;23;20010;-75
2022/10/25 06:00:22;;;;;;;16.17;5.63;;;;;;;;;;6120689;23;20018;-77
2022/10/25 06:02:48;;;;;;;26.02;7.03;;;;;;;;;;6071530;23;20020;-76
2022/10/25 06:05:14;;;;;;;15.77;4.85;;;;;;;;;;6095946;23;20017;-76
2022/10/25 06:07:40;;;;;;;15.45;5.90;;;;;;;;;;6119524;23;20034;-76
2022/10/25 06:10:06;;;;;;;17.23;6.30;;;;;;;;;;6071535;23;20584;-77
2022/10/25 06:12:32;;;;;;;13.07;5.57;;;;;;;;;;6121594;23;20069;-76
2022/10/25 06:14:58;;;;;;;19.83;5.30;;;;;;;;;;6121238;23;20018;-77
2022/10/25 06:17:24;;;;;;;30.60;6.95;;;;;;;;;;6096627;23;20028;-76
2022/10/25 06:19:50;;;;;;;16.58;5.80;;;;;;;;;;6122199;23;20028;-76
2022/10/25 06:22:16;;;;;;;18.73;6.78;;;;;;;;;;6119777;23;20499;-77
2022/10/25 06:24:42;;;;;;;11.38;5.97;;;;;;;;;;6121597;23;20061;-77
2022/10/25 06:27:09;;;;;;;12.77;5.30;;;;;;;;;;6121479;23;20022;-77
2022/10/25 06:29:35;;;;;;;17.35;5.60;;;;;;;;;;6120943;23;20029;-77
2022/10/25 06:32:01;;;;;;;14.90;6.10;;;;;;;;;;6096747;23;20049;-77
2022/10/25 06:34:27;;;;;;;15.07;5.80;;;;;;;;;;6072857;23;20019;-77
2022/10/25 06:36:53;;;;;;;10.27;5.32;;;;;;;;;;6120846;23;20499;-76
2022/10/25 06:39:19;;;;;;;17.15;5.32;;;;;;;;;;6120580;23;20025;-77
2022/10/25 06:41:45;;;;;;;10.73;4.88;;;;;;;;;;6096920;23;20013;-76
2022/10/25 06:44:11;;;;;;;16.95;5.38;;;;;;;;;;6120609;23;20034;-76
2022/10/25 06:46:38;;;;;;;14.77;6.15;;;;;;;;;;6120321;23;20084;-77
2022/10/25 06:49:05;;;;;;;13.52;4.93;;;;;;;;;;6120998;23;20463;-76
2022/10/25 06:51:33;;;;;;;12.13;4.25;;;;;;;;;;6096793;23;20014;-76
2022/10/25 06:54:00;;;;;;;12.27;5.75;;;;;;;;;;6121668;23;20266;-76
2022/10/25 06:56:28;;;;;;;11.50;4.75;;;;;;;;;;6096727;23;20447;-77
2022/10/25 06:58:54;;;;;;;19.40;5.05;;;;;;;;;;6121775;23;20523;-76
2022/10/25 07:01:21;;;;;;;14.95;5.18;;;;;;;;;;6120807;23;20017;-76
2022/10/25 07:03:49;;;;;;;9.00;5.20;;;;;;;;;;6096383;23;20020;-77
2022/10/25 07:06:21;;;;;;;19.02;5.97;;;;;;;;;;6097311;23;20076;-77
2022/10/25 07:08:47;;;;;;;13.05;4.95;;;;;;;;;;6096252;23;20025;-77
2022/10/25 07:11:14;;;;;;;12.13;5.03;;;;;;;;;;6121288;23;20350;-77
2022/10/25 07:13:41;;;;;;;14.25;5.50;;;;;;;;;;6121487;23;20089;-78
2022/10/25 07:16:08;;;;;;;13.68;4.82;;;;;;;;;;6121789;23;20115;-77
2022/10/25 07:18:35;;;;;;;10.05;4.50;;;;;;;;;;6121001;23;20010;-77
2022/10/25 07:21:06;;;;;;;18.23;5.53;;;;;;;;;;6121065;23;20021;-77
2022/10/25 07:23:32;;;;;;;12.40;5.07;;;;;;;;;;6121643;23;20425;-77
2022/10/25 07:25:59;;;;;;;13.40;5.00;;;;;;;;;;6121091;23;20022;-77
2022/10/25 07:28:25;;;;;;;14.55;4.65;;;;;;;;;;6120814;23;20010;-77
2022/10/25 07:30:51;;;;;;;14.50;4.90;;;;;;;;;;6096972;23;20014;-77
2022/10/25 07:33:18;;;;;;;18.20;4.10;;;;;;;;;;6072858;23;20010;-77
2022/10/25 07:35:48;;;;;;;12.55;5.30;;;;;;;;;;6120845;23;20021;-77
2022/10/25 07:38:14;;;;;;;11.90;5.60;;;;;;;;;;6121039;23;20014;-77
2022/10/25 07:40:41;;;;;;;17.17;5.50;;;;;;;;;;6097166;23;20104;-77
2022/10/25 07:43:07;;;;;;;11.77;4.95;;;;;;;;;;6072266;23;20018;-77
2022/10/25 07:45:33;;;;;;;15.50;5.00;;;;;;;;;;6120505;23;20446;-77
2022/10/25 07:48:00;;;;;;;14.05;6.78;;;;;;;;;;6119324;23;20532;-77
2022/10/25 07:50:26;;;;;;;15.00;5.10;;;;;;;;;;6120007;23;20018;-77
2022/10/25 07:52:53;;;;;;;10.57;5.15;;;;;;;;;;6096096;23;20673;-77
2022/10/25 07:55:20;;;;;;;11.45;5.05;;;;;;;;;;6094771;23;20018;-77
2022/10/25 07:57:46;;;;;;;8.23;4.57;;;;;;;;;;6117592;23;20014;-77
2022/10/25 08:00:12;;;;;;;10.88;5.30;;;;;;;;;;6094226;23;20044;-76
2022/10/25 08:02:38;;;;;;;16.77;5.40;;;15.40;99.90;;;;;;6117792;23;20018;-76
2022/10/25 08:05:04;;;;;;;10.93;4.82;;;;;;;;;;6069971;23;20014;-77
2022/10/25 08:07:30;;;;;;;14.10;4.90;;;;;;;;;;6119656;23;20544;-77
2022/10/25 08:09:56;;;;;;;15.65;5.38;;;;;;;;;;6119358;23;20021;-77
2022/10/25 08:12:22;;;;;;;13.95;5.88;;;;;;;;;;6119549;23;20021;-77
2022/10/25 08:14:49;;;;;;;15.20;5.70;;;;;;;;;;6119269;23;20014;-77
2022/10/25 08:17:16;;;;;;;12.98;4.55;;;;;;;;;;6069387;23;20345;-78
2022/10/25 08:19:43;;;;;;;16.02;6.65;;;;;;;;;;6117988;23;20053;-78
2022/10/25 08:22:09;;;;;;;15.48;5.43;;;;;;;;;;6119854;23;20154;-77
2022/10/25 08:24:37;;;;;;;13.07;5.22;;;;;;;;;;6071448;23;20121;-78
2022/10/25 08:27:03;;;;;;;12.32;4.25;;;;;;;;;;6096040;23;20013;-78
2022/10/25 08:29:29;;;;;;;12.85;5.47;;;;;;;;;;6118438;23;20018;-77
2022/10/25 08:31:55;;;;;;;15.27;6.55;;;;;;;;;;6093520;23;20104;-77
2022/10/25 08:34:21;;;;;;;14.88;6.15;;;;;;;;;;6118568;23;20014;-77
2022/10/25 08:36:48;;;;;;;13.13;4.97;;;;;;;;;;6070407;23;20023;-78
2022/10/25 08:39:16;;;;;;;11.90;4.65;;;;;;;;;;6070230;23;20084;-77
2022/10/25 08:41:52;;;;;;;10.95;5.15;;;;;;;;;;6071008;23;20018;-77
2022/10/25 08:44:37;;;;;;;15.85;5.00;;;;;;;;;;6118420;23;20411;-78
2022/10/25 08:47:21;;;;;;;18.23;6.28;;;;;;;;;;6119758;23;20040;-78
2022/10/25 08:49:52;;;;;;;9.93;5.32;;;;;;;;;;6118470;23;20018;-78
2022/10/25 08:52:39;;;;;;;15.10;5.47;;;;;;;;;;6070360;23;20101;-78
2022/10/25 08:55:15;;;;;;;19.85;6.95;;;;;;;;;;6071252;23;20444;-79
2022/10/25 08:57:45;;;;;;;;;;;;;;;;;;6119244;23;20014;-78
2022/10/25 09:00:31;;;;;;;16.15;6.32;;;;;;;;;;6071239;23;19913;-81
2022/10/25 09:03:01;;;;;;;14.05;6.32;;;13.20;99.90;;;;;;6120487;23;20096;-81
2022/10/25 09:05:48;;;;;;;10.20;4.88;;;;;;;;;;6121745;23;20029;-81
2022/10/25 09:08:14;;;;;;;15.00;5.50;;;;;;;;;;6118546;23;20025;-81
2022/10/25 09:10:47;;;;;;;11.68;5.18;;;;;;;;;;6118632;23;20374;-81
2022/10/25 09:13:32;;;;;;;17.98;5.50;;;;;;;;;;6094905;23;20060;-81
2022/10/25 09:16:14;;;;;;;16.63;5.55;;;14.20;99.90;;;;;;6069864;23;20029;-81
2022/10/25 09:18:48;;;;;;;10.27;4.30;;;;;;;;;;6094174;23;20407;-81
2022/10/25 09:21:22;;;;;;;11.25;4.53;;;;;;;;;;6071783;23;20093;-82
2022/10/25 09:23:57;;;;;;;11.73;4.65;;;;;;;;;;6121688;23;20326;-81
2022/10/25 09:26:41;;;;;;;9.27;4.45;;;;;;;;;;6098002;23;20017;-81
2022/10/25 09:29:07;;;;;;;10.88;3.70;;;;;;;;;;6121771;23;20500;-84
2022/10/25 09:31:37;;;;;;;10.07;3.85;;;;;;;;;;6123052;23;20033;-86
2022/10/25 09:34:05;;;;;;;11.52;3.58;;;;;;;;;;6123686;23;20156;-82
2022/10/25 09:36:35;;;;;;;13.98;4.55;;;;;;;;;;6121089;23;20471;-78
2022/10/25 09:39:04;;;;;;;18.45;4.55;;;;;;;;;;6118970;23;20022;-79
2022/10/25 09:41:42;;;;;;;10.05;3.25;;;;;;;;;;6118958;23;20017;-79
2022/10/25 09:44:14;;;;;;;12.52;3.53;;;;;;;;;;6094704;23;20079;-78
2022/10/25 09:46:46;;;;;;;13.18;3.22;;;;;;;;;;6119716;23;20460;-78
2022/10/25 09:49:12;;;;;;;;;;;;;;;;;;6120965;23;20022;-78
2022/10/25 09:52:11;;;;;;;11.45;4.32;;;14.40;99.90;;;;;;6119392;23;20275;-78
2022/10/25 09:54:53;;;;;;;9.45;4.10;;;14.80;99.90;;;;;;6119699;23;20018;-78
2022/10/25 09:57:19;;;;;;;12.63;4.15;;;;;;;;;;6119212;23;20014;-78
2022/10/25 09:59:48;;;;;;;9.20;3.03;;;;;;;;;;6120061;23;20109;-79
2022/10/25 10:02:17;;;;;;;14.73;3.53;;;;;;;;;;6073765;23;20092;-79
2022/10/25 10:04:43;;;;;;;14.00;4.25;;;;;;;;;;6096694;23;20092;-79
2022/10/25 10:07:15;;;;;;;10.35;3.75;;;;;;;;;;6071324;23;20020;-79
2022/10/25 10:09:41;;;;;;;8.90;4.28;;;;;;;;;;6119796;23;20018;-79
2022/10/25 10:12:10;;;;;;;8.20;3.28;;;;;;;;;;6119527;23;20559;-79
2022/10/25 10:14:39;;;;;;;12.07;3.70;;;;;;;;;;6095551;23;20013;-79
2022/10/25 10:17:10;;;;;;;12.15;4.50;;;;;;;;;;6095914;23;20018;-79
2022/10/25 10:19:37;;;;;;;7.35;3.92;;;;;;;;;;6120044;23;20097;-79
2022/10/25 10:22:07;;;;;;;17.15;4.65;;;;;;;;;;6119199;23;20069;-79
2022/10/25 10:24:38;;;;;;;12.82;4.55;;;;;;;;;;6095271;23;20111;-79
2022/10/25 10:27:20;;;;;;;14.05;4.35;;;;;;;;;;6095677;23;20021;-79
2022/10/25 10:29:59;;;;;;;18.48;4.80;;;;;;;;;;6118651;23;20445;-79
2022/10/25 10:32:35;;;;;;;12.98;3.97;;;;;;;;;;6096518;23;20013;-79
2022/10/25 10:35:02;;;;;;;14.63;4.80;;;;;;;;;;6072041;23;20401;-78
2022/10/25 10:37:30;;;;;;;14.93;5.90;;;;;;;;;;6095619;23;20654;-79
2022/10/25 10:40:00;;;;;;;14.25;4.90;;;;;;;;;;6093695;23;20014;-79
2022/10/25 10:42:33;;;;;;;17.40;4.40;;;;;;;;;;6118770;23;20413;-78
2022/10/25 10:45:09;;;;;;;20.05;6.90;;;;;;;;;;6119627;23;20014;-78
2022/10/25 10:47:50;;;;;;;10.93;5.18;;;14.90;99.90;;;;;;6093875;23;20021;-78
2022/10/25 10:50:23;;;;;;;10.73;6.15;;;;;;;;;;6118968;23;20021;-78
2022/10/25 10:53:02;;;;;;;13.10;5.93;;;;;;;;;;6119492;23;20010;-78
2022/10/25 10:55:35;;;;;;;15.50;6.50;;;;;;;;;;6119245;23;20024;-78
2022/10/25 10:58:02;;;;;;;14.77;5.93;;;;;;;;;;6119085;23;20010;-78
2022/10/25 11:00:29;;;;;;;15.75;5.50;;;;;;;;;;6117861;23;20024;-78
2022/10/25 11:02:55;;;;;;;9.32;6.65;;;;;;;;;;6095389;23;20013;-78
2022/10/25 11:05:26;;;;;;;13.55;5.85;;;;;;;;;;6117053;23;20092;-78
2022/10/25 11:08:12;;;;;;;14.93;5.68;;;;;;;;;;6119669;23;20072;-78
2022/10/25 11:10:39;;;;;;;10.15;4.93;;;;;;;;;;6118793;23;20436;-78
2022/10/25 11:13:06;;;;;;;16.58;6.00;;;;;;;;;;6118841;23;20100;-78
2022/10/25 11:15:38;;;;;;;11.15;4.43;;;;;;;;;;6070781;23;20382;-77
2022/10/25 11:18:06;;;;;;;12.63;6.25;;;;;;;;;;6094522;23;20345;-78
2022/10/25 11:20:52;;;;;;;13.07;5.90;;;;;;;;;;6119479;23;20014;-78
2022/10/25 11:23:35;;;;;;;16.20;6.13;;;;;;;;;;6119292;23;20437;-78
2022/10/25 11:26:09;;;;;;;17.70;5.78;;;;;;;;;;6094842;23;20097;-78
2022/10/25 11:28:46;;;;;;;13.32;6.30;;;;;;;;;;6094286;23;20044;-79
2022/10/25 11:31:29;;;;;;;13.38;6.65;;;;;;;;;;6119137;23;20041;-78
2022/10/25 11:33:55;;;;;;;;;;;;;;;;;;6120139;23;20017;-78
2022/10/25 11:36:21;;;;;;;13.13;3.50;;;;;;;;;;6094601;23;20298;-78
2022/10/25 11:38:51;;;;;;;12.27;4.90;;;;;;;;;;6118808;23;20360;-78
2022/10/25 11:41:28;;;;;;;15.98;4.57;;;;;;;;;;6094845;23;20018;-78
2022/10/25 11:44:13;;;;;;;12.02;5.05;;;;;;;;;;6117664;23;20124;-78
2022/10/25 11:46:45;;;;;;;6.78;3.33;;;;;;;;;;6094538;23;20028;-78
2022/10/25 11:49:14;;;;;;;7.93;3.10;;;;;;;;;;6118493;23;20025;-78
2022/10/25 11:51:59;;;;;;;13.68;3.47;;;;;;;;;;6117028;23;20504;-78
2022/10/25 11:54:33;;;;;;;8.20;3.47;;;;;;;;;;6117904;23;20018;-78
2022/10/25 11:56:59;;;;;;;10.48;3.85;;;;;;;;;;6118528;23;20013;-78
2022/10/25 11:59:38;;;;;;;11.93;3.85;;;;;;;;;;6094554;23;20014;-78
2022/10/25 12:02:08;;;;;;;12.30;4.80;;;;;;;;;;6119274;23;20236;-78
2022/10/25 12:04:43;;;;;;;10.10;4.53;;;;;;;;;;6117977;23;20017;-78
2022/10/25 12:07:18;;;;;;;13.98;4.65;;;;;;;;;;6118300;23;20452;-78
2022/10/25 12:09:50;;;;;;;9.57;5.20;;;;;;;;;;6093955;23;20018;-78
2022/10/25 12:12:18;;;;;;;13.57;5.65;;;;;;;;;;6118499;23;20092;-78
2022/10/25 12:14:48;;;;;;;10.70;6.03;;;;;;;;;;6118276;23;20014;-78
2022/10/25 12:17:19;;;;;;;10.52;6.32;;;;;;;;;;6118363;23;20372;-78
2022/10/25 12:19:46;;;;;;;11.27;6.25;;;;;;;;;;6093804;23;20069;-79
2022/10/25 12:22:17;;;;;;;14.68;6.45;;;;;;;;;;6093427;23;20029;-79
2022/10/25 12:24:52;;;;;;;11.23;5.03;;;;;;;;;;6118036;23;20025;-79
2022/10/25 12:27:21;;;;;;;10.18;4.97;;;;;;;;;;6118036;23;20274;-79
2022/10/25 12:29:53;;;;;;;8.27;4.72;;;;;;;;;;6117187;23;20460;-79
2022/10/25 12:32:33;;;;;;;13.48;5.18;;;;;;;;;;6119041;23;20068;-78
2022/10/25 12:35:00;;;;;;;11.40;5.13;;;;;;;;;;6117393;23;20340;-79
2022/10/25 12:37:34;;;;;;;11.82;5.68;;;;;;;;;;6117638;23;20104;-79
2022/10/25 12:40:00;;;;;;;9.48;4.60;;;;;;;;;;6113564;23;20064;-79
2022/10/25 12:42:47;;;;;;;10.35;4.85;;;;;;;;;;6090901;23;20083;-78
2022/10/25 12:45:22;;;;;;;14.85;5.53;;;;;;;;;;6092218;23;20429;-79
2022/10/25 12:48:01;;;;;;;9.23;5.40;;;;;;;;;;6117488;23;20064;-79
2022/10/25 12:50:33;;;;;;;9.57;4.60;;;;;;;;;;6117334;23;20280;-79
2022/10/25 12:53:20;;;;;;;14.63;6.47;;;;;;;;;;6117849;23;20014;-79
2022/10/25 12:56:04;;;;;;;10.40;6.22;;;;;;;;;;6117629;23;20440;-79
2022/10/25 12:58:51;;;;;;;20.35;5.38;;;;;;;;;;6093431;23;20018;-79
2022/10/25 13:01:29;;;;;;;21.48;5.68;;;;;;;;;;6117623;23;20041;-78
2022/10/25 13:04:15;;;;;;;10.18;5.43;;;;;;;;;;6117278;23;20014;-79
2022/10/25 13:06:46;;;;;;;9.60;5.32;;;;;;;;;;6011316;23;20010;-78
2022/10/25 13:09:18;;;;;;;10.90;6.22;;;;;;;;;;6118049;23;20014;-78
2022/10/25 13:11:49;;;;;;;10.93;6.03;;;;;;;;;;6117971;23;20499;-78
2022/10/25 13:14:23;;;;;;;8.30;5.45;;;;;;;;;;6118024;23;20021;-78
2022/10/25 13:16:49;;;;;;;11.55;5.97;;;;;;;;;;6118525;23;20049;-78
2022/10/25 13:19:29;;;;;;;13.13;7.18;;;;;;;;;;6116711;23;20014;-78
2022/10/25 13:21:57;;;;;;;16.48;7.57;;;;;;;;;;6116675;23;20022;-78
2022/10/25 13:24:55;;;;;;;19.77;7.82;;;;;;;;;;6117676;23;20034;-78
2022/10/25 13:27:23;;;;;;;11.75;7.47;;;;;;;;;;6052346;23;20022;-78
2022/10/25 13:30:11;;;;;;;16.23;8.23;;;;;;;;;;6117323;23;20049;-78
2022/10/25 13:32:40;;;;;;;12.77;7.53;;;;;;;;;;6117699;23;20014;-78
2022/10/25 13:35:21;;;;;;;13.40;8.55;;;;;;;;;;6094168;23;20097;-78
2022/10/25 13:37:48;;;;;;;15.27;9.40;;;;;;;;;;6095159;23;20010;-78
2022/10/25 13:40:25;;;;;;;14.73;8.65;;;;;;;;;;6094026;23;20047;-78
2022/10/25 13:43:10;;;;;;;12.70;8.05;;;;;;;;;;6094521;23;20057;-78
2022/10/25 13:45:39;;;;;;;11.30;8.15;;;;;;;;;;6119392;23;20694;-78
2022/10/25 13:48:09;;;;;;;20.13;8.93;;;;;;;;;;6119654;23;20020;-78
2022/10/25 13:50:45;;;;;;;12.82;7.43;;;;;;;;;;6118833;23;20425;-78
2022/10/25 13:53:18;;;;;;;12.32;8.00;;;;;;;;;;6119287;23;20018;-77
2022/10/25 13:55:46;;;;;;;10.10;6.35;;;;;;;;;;6118360;23;20014;-78
2022/10/25 13:58:27;;;;;;;11.88;7.20;;;;;;;;;;6118117;23;20081;-78
2022/10/25 14:00:54;;;;;;;12.80;8.05;;;;;;;;;;6119600;23;20018;-77
2022/10/25 14:03:20;;;;;;;10.82;7.30;;;;;;;;;;6092294;23;20352;-78
2022/10/25 14:05:55;;;;;;;13.90;7.85;;;;;;;;;;6092528;23;20029;-82
2022/10/25 14:08:21;;;;;;;13.73;7.97;;;;;;;;;;6093098;23;20014;-83
2022/10/25 14:10:48;;;;;;;13.45;7.88;;;;;;;;;;6092780;23;20014;-82
2022/10/25 14:13:18;;;;;;;14.82;7.68;;;;;;;;;;6067069;23;20083;-82
2022/10/25 14:16:11;;;;;;;12.15;8.05;;;;;;;;;;6116974;23;20349;-82
2022/10/25 14:18:39;;;;;;;13.93;8.30;;;;;;;;;;6065163;23;20704;-82
2022/10/25 14:21:08;;;;;;;12.88;9.15;;;;;;;;;;6118402;23;20257;-82
2022/10/25 14:23:34;;;;;;;15.07;8.45;;;;;;;;;;6119277;23;20018;-82
2022/10/25 14:26:05;;;;;;;14.20;8.48;;;;;;;;;;6094882;23;20013;-82
2022/10/25 14:28:32;;;;;;;11.70;8.02;;;;;;;;;;6119184;23;20050;-82
2022/10/25 14:30:59;;;;;;;11.48;7.90;;;;;;;;;;6119573;23;20053;-82
2022/10/25 14:33:25;;;;;;;17.20;9.85;;;;;;;;;;6095083;23;20016;-82
2022/10/25 14:35:53;;;;;;;13.65;9.07;;;;;;;;;;6119280;23;20415;-83
2022/10/25 14:38:21;;;;;;;13.55;8.60;;;;;;;;;;6119909;23;20010;-82
2022/10/25 14:40:54;;;;;;;23.35;10.75;;;;;;;;;;6119884;23;20073;-77
2022/10/25 14:43:21;;;;;;;13.02;8.07;;;;;;;;;;6118030;23;20352;-77